sensor_id;sensor_type;location;lat;lon;timestamp;P1;durP1;ratioP1;P2;durP2;ratioP2
8540;SDS011;4308;51.294;6.590;2023-04-15T00:01:51;6.93;;;4.17;;
8540;SDS011;4308;51.294;6.590;2023-04-15T00:04:19;13.33;;;4.70;;
8540;SDS011;4308;51.294;6.590;2023-04-15T00:06:50;6.90;;;4.00;;
8540;SDS011;4308;51.294;6.590;2023-04-15T00:09:18;7.90;;;4.03;;
8540;SDS011;4308;51.294;6.590;2023-04-15T00:11:46;7.43;;;4.27;;
8540;SDS011;4308;51.294;6.590;2023-04-15T00:14:13;8.33;;;4.47;;
8540;SDS011;4308;51.294;6.590;2023-04-15T00:16:41;7.27;;;4.17;;
8540;SDS011;4308;51.294;6.590;2023-04-15T00:19:09;9.47;;;4.57;;
8540;SDS011;4308;51.294;6.590;2023-04-15T00:21:37;6.07;;;4.10;;
8540;SDS011;4308;51.294;6.590;2023-04-15T00:24:05;8.50;;;4.33;;
8540;SDS011;4308;51.294;6.590;2023-04-15T00:26:33;6.07;;;3.97;;
8540;SDS011;4308;51.294;6.590;2023-04-15T00:29:00;8.77;;;4.57;;
8540;SDS011;4308;51.294;6.590;2023-04-15T00:31:28;7.47;;;3.67;;
8540;SDS011;4308;51.294;6.590;2023-04-15T00:33:56;8.93;;;4.23;;
8540;SDS011;4308;51.294;6.590;2023-04-15T00:36:23;9.57;;;4.53;;
8540;SDS011;4308;51.294;6.590;2023-04-15T00:38:51;10.00;;;4.80;;
8540;SDS011;4308;51.294;6.590;2023-04-15T00:41:19;9.70;;;4.27;;
8540;SDS011;4308;51.294;6.590;2023-04-15T00:43:46;12.63;;;6.13;;
8540;SDS011;4308;51.294;6.590;2023-04-15T00:46:14;10.13;;;4.90;;
8540;SDS011;4308;51.294;6.590;2023-04-15T00:48:42;8.20;;;4.93;;
8540;SDS011;4308;51.294;6.590;2023-04-15T00:51:10;7.67;;;4.93;;
8540;SDS011;4308;51.294;6.590;2023-04-15T00:53:37;9.77;;;5.43;;
8540;SDS011;4308;51.294;6.590;2023-04-15T00:56:05;8.87;;;5.33;;
8540;SDS011;4308;51.294;6.590;2023-04-15T00:58:32;11.23;;;5.03;;
8540;SDS011;4308;51.294;6.590;2023-04-15T01:01:00;9.20;;;5.13;;
8540;SDS011;4308;51.294;6.590;2023-04-15T01:03:28;8.57;;;5.13;;
8540;SDS011;4308;51.294;6.590;2023-04-15T01:05:56;10.10;;;5.20;;
8540;SDS011;4308;51.294;6.590;2023-04-15T01:08:27;13.67;;;5.80;;
8540;SDS011;4308;51.294;6.590;2023-04-15T01:10:58;12.33;;;5.50;;
8540;SDS011;4308;51.294;6.590;2023-04-15T01:13:26;11.00;;;5.00;;
8540;SDS011;4308;51.294;6.590;2023-04-15T01:15:54;7.17;;;5.40;;
8540;SDS011;4308;51.294;6.590;2023-04-15T01:18:22;7.33;;;5.00;;
8540;SDS011;4308;51.294;6.590;2023-04-15T01:20:53;7.50;;;4.90;;
8540;SDS011;4308;51.294;6.590;2023-04-15T01:23:20;8.07;;;5.17;;
8540;SDS011;4308;51.294;6.590;2023-04-15T01:25:48;14.30;;;5.83;;
8540;SDS011;4308;51.294;6.590;2023-04-15T01:28:16;14.07;;;6.20;;
8540;SDS011;4308;51.294;6.590;2023-04-15T01:30:43;10.50;;;5.57;;
8540;SDS011;4308;51.294;6.590;2023-04-15T01:33:11;12.90;;;5.67;;
8540;SDS011;4308;51.294;6.590;2023-04-15T01:35:38;12.10;;;5.93;;
8540;SDS011;4308;51.294;6.590;2023-04-15T01:38:08;10.33;;;5.40;;
8540;SDS011;4308;51.294;6.590;2023-04-15T01:40:35;9.30;;;5.60;;
8540;SDS011;4308;51.294;6.590;2023-04-15T01:43:03;9.83;;;5.60;;
8540;SDS011;4308;51.294;6.590;2023-04-15T01:45:31;9.27;;;5.90;;
8540;SDS011;4308;51.294;6.590;2023-04-15T01:47:58;9.70;;;5.63;;
8540;SDS011;4308;51.294;6.590;2023-04-15T01:50:26;9.07;;;5.20;;
8540;SDS011;4308;51.294;6.590;2023-04-15T01:52:54;10.20;;;6.03;;
8540;SDS011;4308;51.294;6.590;2023-04-15T01:55:21;10.43;;;6.23;;
8540;SDS011;4308;51.294;6.590;2023-04-15T01:57:49;9.37;;;5.40;;
8540;SDS011;4308;51.294;6.590;2023-04-15T02:00:16;10.50;;;5.77;;
8540;SDS011;4308;51.294;6.590;2023-04-15T02:02:44;10.67;;;6.17;;
8540;SDS011;4308;51.294;6.590;2023-04-15T02:05:12;8.67;;;5.60;;
8540;SDS011;4308;51.294;6.590;2023-04-15T02:07:39;10.43;;;6.40;;
8540;SDS011;4308;51.294;6.590;2023-04-15T02:10:07;11.23;;;5.70;;
8540;SDS011;4308;51.294;6.590;2023-04-15T02:12:35;15.00;;;6.70;;
8540;SDS011;4308;51.294;6.590;2023-04-15T02:15:02;11.03;;;7.03;;
8540;SDS011;4308;51.294;6.590;2023-04-15T02:17:33;10.33;;;6.53;;
8540;SDS011;4308;51.294;6.590;2023-04-15T02:20:00;13.67;;;6.30;;
8540;SDS011;4308;51.294;6.590;2023-04-15T02:22:28;10.93;;;6.27;;
8540;SDS011;4308;51.294;6.590;2023-04-15T02:24:56;14.43;;;6.80;;
8540;SDS011;4308;51.294;6.590;2023-04-15T02:27:23;12.17;;;6.57;;
8540;SDS011;4308;51.294;6.590;2023-04-15T02:29:51;9.73;;;6.80;;
8540;SDS011;4308;51.294;6.590;2023-04-15T02:32:22;11.37;;;7.10;;
8540;SDS011;4308;51.294;6.590;2023-04-15T02:34:50;13.47;;;7.03;;
8540;SDS011;4308;51.294;6.590;2023-04-15T02:37:17;9.27;;;5.83;;
8540;SDS011;4308;51.294;6.590;2023-04-15T02:39:45;11.00;;;6.90;;
8540;SDS011;4308;51.294;6.590;2023-04-15T02:42:13;10.90;;;5.77;;
8540;SDS011;4308;51.294;6.590;2023-04-15T02:44:40;12.90;;;7.00;;
8540;SDS011;4308;51.294;6.590;2023-04-15T02:47:08;15.03;;;6.87;;
8540;SDS011;4308;51.294;6.590;2023-04-15T02:49:35;9.23;;;6.00;;
8540;SDS011;4308;51.294;6.590;2023-04-15T02:52:03;11.43;;;6.60;;
8540;SDS011;4308;51.294;6.590;2023-04-15T02:54:31;14.57;;;6.73;;
8540;SDS011;4308;51.294;6.590;2023-04-15T02:56:58;9.77;;;5.97;;
8540;SDS011;4308;51.294;6.590;2023-04-15T02:59:26;12.63;;;6.50;;
8540;SDS011;4308;51.294;6.590;2023-04-15T03:01:53;12.73;;;6.43;;
8540;SDS011;4308;51.294;6.590;2023-04-15T03:04:21;11.13;;;6.53;;
8540;SDS011;4308;51.294;6.590;2023-04-15T03:06:49;14.00;;;7.23;;
8540;SDS011;4308;51.294;6.590;2023-04-15T03:09:16;13.43;;;7.23;;
8540;SDS011;4308;51.294;6.590;2023-04-15T03:11:44;11.23;;;6.77;;
8540;SDS011;4308;51.294;6.590;2023-04-15T03:14:11;12.50;;;6.87;;
8540;SDS011;4308;51.294;6.590;2023-04-15T03:16:39;9.37;;;6.83;;
8540;SDS011;4308;51.294;6.590;2023-04-15T03:19:06;14.17;;;6.37;;
8540;SDS011;4308;51.294;6.590;2023-04-15T03:21:34;11.50;;;7.37;;
8540;SDS011;4308;51.294;6.590;2023-04-15T03:24:02;10.27;;;6.87;;
8540;SDS011;4308;51.294;6.590;2023-04-15T03:26:29;12.20;;;7.60;;
8540;SDS011;4308;51.294;6.590;2023-04-15T03:28:57;11.63;;;6.90;;
8540;SDS011;4308;51.294;6.590;2023-04-15T03:31:25;11.23;;;7.10;;
8540;SDS011;4308;51.294;6.590;2023-04-15T03:33:53;11.50;;;6.87;;
8540;SDS011;4308;51.294;6.590;2023-04-15T03:36:20;10.63;;;7.20;;
8540;SDS011;4308;51.294;6.590;2023-04-15T03:38:48;12.70;;;7.70;;
8540;SDS011;4308;51.294;6.590;2023-04-15T03:41:15;12.40;;;7.43;;
8540;SDS011;4308;51.294;6.590;2023-04-15T03:43:43;10.27;;;7.50;;
8540;SDS011;4308;51.294;6.590;2023-04-15T03:46:10;15.20;;;7.30;;
8540;SDS011;4308;51.294;6.590;2023-04-15T03:48:38;13.33;;;7.53;;
8540;SDS011;4308;51.294;6.590;2023-04-15T03:51:06;15.60;;;8.40;;
8540;SDS011;4308;51.294;6.590;2023-04-15T03:53:33;13.23;;;8.33;;
8540;SDS011;4308;51.294;6.590;2023-04-15T03:56:01;12.07;;;7.20;;
8540;SDS011;4308;51.294;6.590;2023-04-15T03:58:28;14.83;;;8.70;;
8540;SDS011;4308;51.294;6.590;2023-04-15T04:00:56;13.17;;;8.37;;
8540;SDS011;4308;51.294;6.590;2023-04-15T04:03:23;14.50;;;8.80;;
8540;SDS011;4308;51.294;6.590;2023-04-15T04:05:51;13.33;;;8.70;;
8540;SDS011;4308;51.294;6.590;2023-04-15T04:08:19;14.23;;;8.73;;
8540;SDS011;4308;51.294;6.590;2023-04-15T04:10:46;13.83;;;9.13;;
8540;SDS011;4308;51.294;6.590;2023-04-15T04:13:14;12.73;;;8.23;;
8540;SDS011;4308;51.294;6.590;2023-04-15T04:15:42;15.10;;;8.73;;
8540;SDS011;4308;51.294;6.590;2023-04-15T04:18:09;11.97;;;7.47;;
8540;SDS011;4308;51.294;6.590;2023-04-15T04:20:37;12.80;;;8.70;;
8540;SDS011;4308;51.294;6.590;2023-04-15T04:23:04;14.67;;;8.37;;
8540;SDS011;4308;51.294;6.590;2023-04-15T04:25:32;15.47;;;9.23;;
8540;SDS011;4308;51.294;6.590;2023-04-15T04:27:59;12.53;;;7.87;;
8540;SDS011;4308;51.294;6.590;2023-04-15T04:30:27;14.03;;;9.27;;
8540;SDS011;4308;51.294;6.590;2023-04-15T04:32:54;13.70;;;8.80;;
8540;SDS011;4308;51.294;6.590;2023-04-15T04:35:22;16.50;;;9.50;;
8540;SDS011;4308;51.294;6.590;2023-04-15T04:37:50;21.50;;;8.90;;
8540;SDS011;4308;51.294;6.590;2023-04-15T04:40:17;15.33;;;9.80;;
8540;SDS011;4308;51.294;6.590;2023-04-15T04:42:45;16.57;;;10.00;;
8540;SDS011;4308;51.294;6.590;2023-04-15T04:45:12;16.00;;;9.60;;
8540;SDS011;4308;51.294;6.590;2023-04-15T04:47:40;17.40;;;8.97;;
8540;SDS011;4308;51.294;6.590;2023-04-15T04:50:07;17.87;;;10.10;;
8540;SDS011;4308;51.294;6.590;2023-04-15T04:52:35;16.63;;;10.23;;
8540;SDS011;4308;51.294;6.590;2023-04-15T04:55:03;17.83;;;9.83;;
8540;SDS011;4308;51.294;6.590;2023-04-15T04:57:31;15.87;;;9.83;;
8540;SDS011;4308;51.294;6.590;2023-04-15T04:59:58;14.83;;;10.20;;
8540;SDS011;4308;51.294;6.590;2023-04-15T05:02:26;16.37;;;9.63;;
8540;SDS011;4308;51.294;6.590;2023-04-15T05:04:54;18.37;;;10.30;;
8540;SDS011;4308;51.294;6.590;2023-04-15T05:07:21;15.27;;;10.80;;
8540;SDS011;4308;51.294;6.590;2023-04-15T05:09:49;22.17;;;11.23;;
8540;SDS011;4308;51.294;6.590;2023-04-15T05:12:16;17.03;;;10.83;;
8540;SDS011;4308;51.294;6.590;2023-04-15T05:14:44;16.43;;;9.83;;
8540;SDS011;4308;51.294;6.590;2023-04-15T05:17:11;15.70;;;9.97;;
8540;SDS011;4308;51.294;6.590;2023-04-15T05:19:39;18.50;;;9.63;;
8540;SDS011;4308;51.294;6.590;2023-04-15T05:22:06;16.37;;;10.70;;
8540;SDS011;4308;51.294;6.590;2023-04-15T05:24:34;14.67;;;9.03;;
8540;SDS011;4308;51.294;6.590;2023-04-15T05:27:01;17.87;;;11.70;;
8540;SDS011;4308;51.294;6.590;2023-04-15T05:29:29;19.43;;;11.50;;
8540;SDS011;4308;51.294;6.590;2023-04-15T05:31:56;16.40;;;11.30;;
8540;SDS011;4308;51.294;6.590;2023-04-15T05:34:24;16.57;;;10.03;;
8540;SDS011;4308;51.294;6.590;2023-04-15T05:36:52;14.40;;;9.97;;
8540;SDS011;4308;51.294;6.590;2023-04-15T05:39:19;16.13;;;11.27;;
8540;SDS011;4308;51.294;6.590;2023-04-15T05:41:47;15.73;;;10.23;;
8540;SDS011;4308;51.294;6.590;2023-04-15T05:44:16;17.23;;;9.90;;
8540;SDS011;4308;51.294;6.590;2023-04-15T05:46:43;14.93;;;9.53;;
8540;SDS011;4308;51.294;6.590;2023-04-15T05:49:11;13.53;;;9.50;;
8540;SDS011;4308;51.294;6.590;2023-04-15T05:51:38;12.53;;;9.57;;
8540;SDS011;4308;51.294;6.590;2023-04-15T05:54:06;12.23;;;8.40;;
8540;SDS011;4308;51.294;6.590;2023-04-15T05:56:33;14.83;;;9.67;;
8540;SDS011;4308;51.294;6.590;2023-04-15T05:59:01;15.37;;;9.43;;
8540;SDS011;4308;51.294;6.590;2023-04-15T06:01:28;10.90;;;7.70;;
8540;SDS011;4308;51.294;6.590;2023-04-15T06:03:56;13.40;;;9.47;;
8540;SDS011;4308;51.294;6.590;2023-04-15T06:06:23;12.73;;;9.17;;
8540;SDS011;4308;51.294;6.590;2023-04-15T06:08:51;9.70;;;7.60;;
8540;SDS011;4308;51.294;6.590;2023-04-15T06:11:19;13.87;;;8.90;;
8540;SDS011;4308;51.294;6.590;2023-04-15T06:13:47;18.67;;;8.97;;
8540;SDS011;4308;51.294;6.590;2023-04-15T06:16:14;12.67;;;8.00;;
8540;SDS011;4308;51.294;6.590;2023-04-15T06:18:42;10.50;;;7.30;;
8540;SDS011;4308;51.294;6.590;2023-04-15T06:21:09;16.50;;;8.93;;
8540;SDS011;4308;51.294;6.590;2023-04-15T06:23:37;13.63;;;9.67;;
8540;SDS011;4308;51.294;6.590;2023-04-15T06:26:04;15.30;;;9.83;;
8540;SDS011;4308;51.294;6.590;2023-04-15T06:28:32;14.50;;;7.80;;
8540;SDS011;4308;51.294;6.590;2023-04-15T06:30:59;14.33;;;9.33;;
8540;SDS011;4308;51.294;6.590;2023-04-15T06:33:27;12.50;;;8.20;;
8540;SDS011;4308;51.294;6.590;2023-04-15T06:35:55;11.07;;;7.90;;
8540;SDS011;4308;51.294;6.590;2023-04-15T06:38:22;13.80;;;8.80;;
8540;SDS011;4308;51.294;6.590;2023-04-15T06:40:50;12.50;;;8.43;;
8540;SDS011;4308;51.294;6.590;2023-04-15T06:43:17;9.07;;;7.07;;
8540;SDS011;4308;51.294;6.590;2023-04-15T06:45:45;15.77;;;9.50;;
8540;SDS011;4308;51.294;6.590;2023-04-15T06:48:13;12.07;;;7.70;;
8540;SDS011;4308;51.294;6.590;2023-04-15T06:50:40;10.67;;;8.53;;
8540;SDS011;4308;51.294;6.590;2023-04-15T06:53:08;14.17;;;9.30;;
8540;SDS011;4308;51.294;6.590;2023-04-15T06:55:36;14.20;;;9.50;;
8540;SDS011;4308;51.294;6.590;2023-04-15T06:58:03;14.70;;;9.80;;
8540;SDS011;4308;51.294;6.590;2023-04-15T07:00:31;15.80;;;9.63;;
8540;SDS011;4308;51.294;6.590;2023-04-15T07:02:58;12.33;;;9.80;;
8540;SDS011;4308;51.294;6.590;2023-04-15T07:05:26;14.23;;;10.23;;
8540;SDS011;4308;51.294;6.590;2023-04-15T07:07:53;13.90;;;9.27;;
8540;SDS011;4308;51.294;6.590;2023-04-15T07:10:21;13.17;;;7.90;;
8540;SDS011;4308;51.294;6.590;2023-04-15T07:12:50;16.07;;;10.40;;
8540;SDS011;4308;51.294;6.590;2023-04-15T07:15:20;14.53;;;10.13;;
8540;SDS011;4308;51.294;6.590;2023-04-15T07:17:47;15.17;;;8.53;;
8540;SDS011;4308;51.294;6.590;2023-04-15T07:20:15;17.63;;;10.67;;
8540;SDS011;4308;51.294;6.590;2023-04-15T07:22:43;14.80;;;10.53;;
8540;SDS011;4308;51.294;6.590;2023-04-15T07:25:11;20.50;;;13.00;;
8540;SDS011;4308;51.294;6.590;2023-04-15T07:27:38;19.13;;;11.50;;
8540;SDS011;4308;51.294;6.590;2023-04-15T07:30:06;12.00;;;7.50;;
8540;SDS011;4308;51.294;6.590;2023-04-15T07:32:34;12.07;;;6.60;;
8540;SDS011;4308;51.294;6.590;2023-04-15T07:35:01;10.53;;;7.90;;
8540;SDS011;4308;51.294;6.590;2023-04-15T07:37:29;12.93;;;8.10;;
8540;SDS011;4308;51.294;6.590;2023-04-15T07:39:56;15.33;;;8.90;;
8540;SDS011;4308;51.294;6.590;2023-04-15T07:42:24;14.03;;;9.17;;
8540;SDS011;4308;51.294;6.590;2023-04-15T07:44:51;11.20;;;7.80;;
8540;SDS011;4308;51.294;6.590;2023-04-15T07:47:19;10.03;;;6.57;;
8540;SDS011;4308;51.294;6.590;2023-04-15T07:49:47;10.40;;;8.27;;
8540;SDS011;4308;51.294;6.590;2023-04-15T07:52:14;11.70;;;8.53;;
8540;SDS011;4308;51.294;6.590;2023-04-15T07:54:42;9.07;;;5.23;;
8540;SDS011;4308;51.294;6.590;2023-04-15T07:57:09;7.20;;;5.73;;
8540;SDS011;4308;51.294;6.590;2023-04-15T07:59:37;6.73;;;4.37;;
8540;SDS011;4308;51.294;6.590;2023-04-15T08:02:04;9.80;;;6.10;;
8540;SDS011;4308;51.294;6.590;2023-04-15T08:04:32;6.23;;;5.27;;
8540;SDS011;4308;51.294;6.590;2023-04-15T08:07:00;9.60;;;6.07;;
8540;SDS011;4308;51.294;6.590;2023-04-15T08:09:27;6.67;;;4.50;;
8540;SDS011;4308;51.294;6.590;2023-04-15T08:11:55;7.17;;;4.70;;
8540;SDS011;4308;51.294;6.590;2023-04-15T08:14:23;11.10;;;6.13;;
8540;SDS011;4308;51.294;6.590;2023-04-15T08:16:51;7.90;;;4.73;;
8540;SDS011;4308;51.294;6.590;2023-04-15T08:19:18;9.03;;;5.20;;
8540;SDS011;4308;51.294;6.590;2023-04-15T08:21:46;5.63;;;3.80;;
8540;SDS011;4308;51.294;6.590;2023-04-15T08:24:13;5.50;;;3.90;;
8540;SDS011;4308;51.294;6.590;2023-04-15T08:26:41;4.70;;;3.73;;
8540;SDS011;4308;51.294;6.590;2023-04-15T08:29:08;7.43;;;4.30;;
8540;SDS011;4308;51.294;6.590;2023-04-15T08:31:36;4.97;;;3.57;;
8540;SDS011;4308;51.294;6.590;2023-04-15T08:34:04;6.17;;;4.93;;
8540;SDS011;4308;51.294;6.590;2023-04-15T08:36:31;6.23;;;4.03;;
8540;SDS011;4308;51.294;6.590;2023-04-15T08:38:59;6.37;;;4.33;;
8540;SDS011;4308;51.294;6.590;2023-04-15T08:41:27;6.60;;;3.00;;
8540;SDS011;4308;51.294;6.590;2023-04-15T08:44:02;6.23;;;4.10;;
8540;SDS011;4308;51.294;6.590;2023-04-15T08:46:30;8.10;;;4.00;;
8540;SDS011;4308;51.294;6.590;2023-04-15T08:48:58;4.70;;;3.27;;
8540;SDS011;4308;51.294;6.590;2023-04-15T08:51:27;5.70;;;3.50;;
8540;SDS011;4308;51.294;6.590;2023-04-15T08:53:55;7.10;;;3.70;;
8540;SDS011;4308;51.294;6.590;2023-04-15T08:56:25;7.17;;;3.93;;
8540;SDS011;4308;51.294;6.590;2023-04-15T08:58:54;7.63;;;4.13;;
8540;SDS011;4308;51.294;6.590;2023-04-15T09:01:22;11.60;;;3.80;;
8540;SDS011;4308;51.294;6.590;2023-04-15T09:03:49;5.33;;;3.07;;
8540;SDS011;4308;51.294;6.590;2023-04-15T09:06:17;4.00;;;2.93;;
8540;SDS011;4308;51.294;6.590;2023-04-15T09:08:45;5.17;;;3.23;;
8540;SDS011;4308;51.294;6.590;2023-04-15T09:11:13;4.37;;;3.57;;
8540;SDS011;4308;51.294;6.590;2023-04-15T09:13:40;8.07;;;3.37;;
8540;SDS011;4308;51.294;6.590;2023-04-15T09:16:08;3.30;;;3.00;;
8540;SDS011;4308;51.294;6.590;2023-04-15T09:18:36;3.77;;;2.33;;
8540;SDS011;4308;51.294;6.590;2023-04-15T09:21:07;2.60;;;1.97;;
8540;SDS011;4308;51.294;6.590;2023-04-15T09:23:36;3.30;;;2.17;;
8540;SDS011;4308;51.294;6.590;2023-04-15T09:26:04;2.70;;;2.43;;
8540;SDS011;4308;51.294;6.590;2023-04-15T09:28:31;4.07;;;2.50;;
8540;SDS011;4308;51.294;6.590;2023-04-15T09:30:59;1.80;;;1.70;;
8540;SDS011;4308;51.294;6.590;2023-04-15T09:33:28;1.77;;;1.63;;
8540;SDS011;4308;51.294;6.590;2023-04-15T09:35:59;3.90;;;2.27;;
8540;SDS011;4308;51.294;6.590;2023-04-15T09:38:27;3.83;;;3.43;;
8540;SDS011;4308;51.294;6.590;2023-04-15T09:40:55;4.40;;;3.40;;
8540;SDS011;4308;51.294;6.590;2023-04-15T09:43:44;5.10;;;3.20;;
8540;SDS011;4308;51.294;6.590;2023-04-15T09:46:11;3.30;;;2.60;;
8540;SDS011;4308;51.294;6.590;2023-04-15T09:48:38;2.60;;;2.37;;
8540;SDS011;4308;51.294;6.590;2023-04-15T09:51:06;3.33;;;2.90;;
8540;SDS011;4308;51.294;6.590;2023-04-15T09:53:34;4.17;;;3.13;;
8540;SDS011;4308;51.294;6.590;2023-04-15T09:56:02;2.57;;;2.27;;
8540;SDS011;4308;51.294;6.590;2023-04-15T09:58:30;2.70;;;2.50;;
8540;SDS011;4308;51.294;6.590;2023-04-15T10:00:58;2.53;;;2.00;;
8540;SDS011;4308;51.294;6.590;2023-04-15T10:03:27;2.47;;;2.20;;
8540;SDS011;4308;51.294;6.590;2023-04-15T10:05:56;4.73;;;2.40;;
8540;SDS011;4308;51.294;6.590;2023-04-15T10:08:25;3.00;;;2.60;;
8540;SDS011;4308;51.294;6.590;2023-04-15T10:10:53;5.83;;;2.70;;
8540;SDS011;4308;51.294;6.590;2023-04-15T10:13:22;3.50;;;2.53;;
8540;SDS011;4308;51.294;6.590;2023-04-15T10:15:51;3.10;;;2.37;;
8540;SDS011;4308;51.294;6.590;2023-04-15T10:18:22;5.27;;;2.27;;
8540;SDS011;4308;51.294;6.590;2023-04-15T10:20:50;3.00;;;2.70;;
8540;SDS011;4308;51.294;6.590;2023-04-15T10:23:19;4.50;;;3.10;;
8540;SDS011;4308;51.294;6.590;2023-04-15T10:25:47;3.90;;;2.60;;
8540;SDS011;4308;51.294;6.590;2023-04-15T10:28:15;3.27;;;2.33;;
8540;SDS011;4308;51.294;6.590;2023-04-15T10:30:43;5.13;;;2.73;;
8540;SDS011;4308;51.294;6.590;2023-04-15T10:33:11;3.87;;;2.40;;
8540;SDS011;4308;51.294;6.590;2023-04-15T10:35:39;4.83;;;3.40;;
8540;SDS011;4308;51.294;6.590;2023-04-15T10:40:53;4.47;;;3.50;;
8540;SDS011;4308;51.294;6.590;2023-04-15T10:43:38;4.63;;;3.67;;
8540;SDS011;4308;51.294;6.590;2023-04-15T10:46:05;4.77;;;3.40;;
8540;SDS011;4308;51.294;6.590;2023-04-15T10:48:33;3.13;;;2.37;;
8540;SDS011;4308;51.294;6.590;2023-04-15T10:51:00;3.37;;;2.63;;
8540;SDS011;4308;51.294;6.590;2023-04-15T10:53:28;3.33;;;2.40;;
8540;SDS011;4308;51.294;6.590;2023-04-15T10:55:56;4.00;;;2.90;;
8540;SDS011;4308;51.294;6.590;2023-04-15T10:58:24;3.43;;;3.00;;
8540;SDS011;4308;51.294;6.590;2023-04-15T11:00:52;4.10;;;2.50;;
8540;SDS011;4308;51.294;6.590;2023-04-15T11:03:36;2.50;;;2.30;;
8540;SDS011;4308;51.294;6.590;2023-04-15T11:06:04;3.90;;;3.23;;
8540;SDS011;4308;51.294;6.590;2023-04-15T11:11:18;4.03;;;3.60;;
8540;SDS011;4308;51.294;6.590;2023-04-15T11:13:49;3.77;;;3.27;;
8540;SDS011;4308;51.294;6.590;2023-04-15T11:16:17;4.20;;;3.53;;
8540;SDS011;4308;51.294;6.590;2023-04-15T11:18:54;5.63;;;3.57;;
8540;SDS011;4308;51.294;6.590;2023-04-15T11:21:23;5.20;;;3.80;;
8540;SDS011;4308;51.294;6.590;2023-04-15T11:23:51;4.00;;;3.37;;
8540;SDS011;4308;51.294;6.590;2023-04-15T11:26:18;3.47;;;3.17;;
8540;SDS011;4308;51.294;6.590;2023-04-15T11:28:52;3.87;;;3.47;;
8540;SDS011;4308;51.294;6.590;2023-04-15T11:31:19;3.20;;;2.90;;
8540;SDS011;4308;51.294;6.590;2023-04-15T11:36:24;4.20;;;3.23;;
8540;SDS011;4308;51.294;6.590;2023-04-15T11:38:52;2.73;;;2.53;;
8540;SDS011;4308;51.294;6.590;2023-04-15T11:41:20;2.27;;;1.97;;
8540;SDS011;4308;51.294;6.590;2023-04-15T11:43:48;2.40;;;2.00;;
8540;SDS011;4308;51.294;6.590;2023-04-15T11:46:16;3.83;;;2.73;;
8540;SDS011;4308;51.294;6.590;2023-04-15T11:48:44;5.70;;;3.00;;
8540;SDS011;4308;51.294;6.590;2023-04-15T11:51:12;4.03;;;2.43;;
8540;SDS011;4308;51.294;6.590;2023-04-15T11:53:47;4.00;;;2.80;;
8540;SDS011;4308;51.294;6.590;2023-04-15T11:56:22;4.17;;;3.03;;
8540;SDS011;4308;51.294;6.590;2023-04-15T11:58:53;4.63;;;3.67;;
8540;SDS011;4308;51.294;6.590;2023-04-15T12:01:34;5.13;;;4.17;;
8540;SDS011;4308;51.294;6.590;2023-04-15T12:04:09;7.17;;;4.30;;
8540;SDS011;4308;51.294;6.590;2023-04-15T12:06:37;4.63;;;3.63;;
8540;SDS011;4308;51.294;6.590;2023-04-15T12:11:40;4.23;;;3.60;;
8540;SDS011;4308;51.294;6.590;2023-04-15T12:14:09;4.03;;;3.50;;
8540;SDS011;4308;51.294;6.590;2023-04-15T12:16:44;4.10;;;3.50;;
8540;SDS011;4308;51.294;6.590;2023-04-15T12:19:16;3.70;;;2.77;;
8540;SDS011;4308;51.294;6.590;2023-04-15T12:21:45;3.17;;;2.87;;
8540;SDS011;4308;51.294;6.590;2023-04-15T12:24:13;5.43;;;4.20;;
8540;SDS011;4308;51.294;6.590;2023-04-15T12:26:48;4.53;;;3.30;;
8540;SDS011;4308;51.294;6.590;2023-04-15T12:29:16;3.47;;;2.60;;
8540;SDS011;4308;51.294;6.590;2023-04-15T12:31:47;3.50;;;3.00;;
8540;SDS011;4308;51.294;6.590;2023-04-15T12:34:16;3.87;;;3.23;;
8540;SDS011;4308;51.294;6.590;2023-04-15T12:36:44;4.63;;;2.73;;
8540;SDS011;4308;51.294;6.590;2023-04-15T12:39:11;2.97;;;2.60;;
8540;SDS011;4308;51.294;6.590;2023-04-15T12:41:39;3.40;;;2.30;;
8540;SDS011;4308;51.294;6.590;2023-04-15T12:44:06;4.10;;;2.43;;
8540;SDS011;4308;51.294;6.590;2023-04-15T12:46:34;3.33;;;2.67;;
8540;SDS011;4308;51.294;6.590;2023-04-15T12:49:02;3.23;;;2.60;;
8540;SDS011;4308;51.294;6.590;2023-04-15T12:51:29;4.87;;;2.47;;
8540;SDS011;4308;51.294;6.590;2023-04-15T12:53:57;3.80;;;2.80;;
8540;SDS011;4308;51.294;6.590;2023-04-15T12:56:24;3.17;;;2.87;;
8540;SDS011;4308;51.294;6.590;2023-04-15T12:58:52;3.63;;;2.43;;
8540;SDS011;4308;51.294;6.590;2023-04-15T13:01:19;3.40;;;2.77;;
8540;SDS011;4308;51.294;6.590;2023-04-15T13:03:47;4.73;;;3.50;;
8540;SDS011;4308;51.294;6.590;2023-04-15T13:06:15;3.83;;;3.43;;
8540;SDS011;4308;51.294;6.590;2023-04-15T13:08:43;3.80;;;3.00;;
8540;SDS011;4308;51.294;6.590;2023-04-15T13:11:23;6.90;;;2.70;;
8540;SDS011;4308;51.294;6.590;2023-04-15T13:13:51;3.00;;;2.53;;
8540;SDS011;4308;51.294;6.590;2023-04-15T13:16:19;4.17;;;2.70;;
8540;SDS011;4308;51.294;6.590;2023-04-15T13:18:47;4.30;;;2.80;;
8540;SDS011;4308;51.294;6.590;2023-04-15T13:21:14;3.57;;;2.57;;
8540;SDS011;4308;51.294;6.590;2023-04-15T13:23:42;8.27;;;2.90;;
8540;SDS011;4308;51.294;6.590;2023-04-15T13:26:10;3.23;;;2.93;;
8540;SDS011;4308;51.294;6.590;2023-04-15T13:28:37;5.37;;;2.10;;
8540;SDS011;4308;51.294;6.590;2023-04-15T13:31:05;3.03;;;2.60;;
8540;SDS011;4308;51.294;6.590;2023-04-15T13:33:33;3.03;;;2.50;;
8540;SDS011;4308;51.294;6.590;2023-04-15T13:36:00;3.83;;;2.43;;
8540;SDS011;4308;51.294;6.590;2023-04-15T13:38:28;4.40;;;2.40;;
8540;SDS011;4308;51.294;6.590;2023-04-15T13:40:56;2.57;;;1.93;;
8540;SDS011;4308;51.294;6.590;2023-04-15T13:43:23;6.40;;;3.20;;
8540;SDS011;4308;51.294;6.590;2023-04-15T13:45:51;3.53;;;2.30;;
8540;SDS011;4308;51.294;6.590;2023-04-15T13:48:21;3.40;;;2.67;;
8540;SDS011;4308;51.294;6.590;2023-04-15T13:50:49;5.57;;;3.30;;
8540;SDS011;4308;51.294;6.590;2023-04-15T13:53:16;3.23;;;2.90;;
8540;SDS011;4308;51.294;6.590;2023-04-15T13:55:44;3.10;;;2.40;;
8540;SDS011;4308;51.294;6.590;2023-04-15T13:58:12;4.70;;;2.63;;
8540;SDS011;4308;51.294;6.590;2023-04-15T14:00:41;4.47;;;2.73;;
8540;SDS011;4308;51.294;6.590;2023-04-15T14:03:09;5.03;;;2.70;;
8540;SDS011;4308;51.294;6.590;2023-04-15T14:05:37;4.53;;;3.10;;
8540;SDS011;4308;51.294;6.590;2023-04-15T14:08:04;3.70;;;2.67;;
8540;SDS011;4308;51.294;6.590;2023-04-15T14:10:32;7.80;;;2.90;;
8540;SDS011;4308;51.294;6.590;2023-04-15T14:12:59;4.97;;;2.80;;
8540;SDS011;4308;51.294;6.590;2023-04-15T14:15:27;2.70;;;2.50;;
8540;SDS011;4308;51.294;6.590;2023-04-15T14:17:55;5.23;;;3.50;;
8540;SDS011;4308;51.294;6.590;2023-04-15T14:20:22;4.07;;;3.00;;
8540;SDS011;4308;51.294;6.590;2023-04-15T14:22:50;5.57;;;3.40;;
8540;SDS011;4308;51.294;6.590;2023-04-15T14:25:17;4.13;;;2.97;;
8540;SDS011;4308;51.294;6.590;2023-04-15T14:27:59;4.47;;;2.70;;
8540;SDS011;4308;51.294;6.590;2023-04-15T14:30:26;4.60;;;3.60;;
8540;SDS011;4308;51.294;6.590;2023-04-15T14:32:54;2.93;;;2.63;;
8540;SDS011;4308;51.294;6.590;2023-04-15T14:35:22;5.63;;;2.90;;
8540;SDS011;4308;51.294;6.590;2023-04-15T14:37:49;3.20;;;2.27;;
8540;SDS011;4308;51.294;6.590;2023-04-15T14:40:17;4.67;;;2.60;;
8540;SDS011;4308;51.294;6.590;2023-04-15T14:42:45;3.17;;;2.43;;
8540;SDS011;4308;51.294;6.590;2023-04-15T14:45:12;3.43;;;2.30;;
8540;SDS011;4308;51.294;6.590;2023-04-15T14:47:40;3.20;;;2.40;;
8540;SDS011;4308;51.294;6.590;2023-04-15T14:50:08;3.37;;;2.60;;
8540;SDS011;4308;51.294;6.590;2023-04-15T14:52:36;3.80;;;2.33;;
8540;SDS011;4308;51.294;6.590;2023-04-15T14:55:07;3.97;;;2.63;;
8540;SDS011;4308;51.294;6.590;2023-04-15T14:57:36;4.07;;;2.67;;
8540;SDS011;4308;51.294;6.590;2023-04-15T15:00:03;2.87;;;2.20;;
8540;SDS011;4308;51.294;6.590;2023-04-15T15:02:32;2.93;;;2.30;;
8540;SDS011;4308;51.294;6.590;2023-04-15T15:05:05;3.83;;;2.50;;
8540;SDS011;4308;51.294;6.590;2023-04-15T15:07:34;6.70;;;2.70;;
8540;SDS011;4308;51.294;6.590;2023-04-15T15:10:01;3.10;;;2.13;;
8540;SDS011;4308;51.294;6.590;2023-04-15T15:12:29;2.93;;;2.20;;
8540;SDS011;4308;51.294;6.590;2023-04-15T15:14:57;3.80;;;2.20;;
8540;SDS011;4308;51.294;6.590;2023-04-15T15:17:26;3.93;;;1.90;;
8540;SDS011;4308;51.294;6.590;2023-04-15T15:19:53;2.40;;;1.87;;
8540;SDS011;4308;51.294;6.590;2023-04-15T15:22:21;2.70;;;2.17;;
8540;SDS011;4308;51.294;6.590;2023-04-15T15:24:49;2.73;;;2.47;;